sensor_id;sensor_type;location;lat;lon;timestamp;P1;durP1;ratioP1;P2;durP2;ratioP2
15167;SDS011;7684;52.150;11.656;2022-10-31T05:16:15;8.33;;;5.90;;
15167;SDS011;7684;52.150;11.656;2022-10-31T05:18:41;9.97;;;7.43;;
15167;SDS011;7684;52.150;11.656;2022-10-31T05:21:08;10.30;;;7.47;;
15167;SDS011;7684;52.150;11.656;2022-10-31T05:23:34;11.80;;;7.47;;
15167;SDS011;7684;52.150;11.656;2022-10-31T05:26:01;10.33;;;6.70;;
15167;SDS011;7684;52.150;11.656;2022-10-31T05:28:27;15.83;;;8.10;;
15167;SDS011;7684;52.150;11.656;2022-10-31T05:30:53;15.17;;;8.13;;
15167;SDS011;7684;52.150;11.656;2022-10-31T05:33:21;16.27;;;7.63;;
15167;SDS011;7684;52.150;11.656;2022-10-31T05:35:47;15.77;;;8.63;;
15167;SDS011;7684;52.150;11.656;2022-10-31T05:38:14;14.57;;;9.57;;
15167;SDS011;7684;52.150;11.656;2022-10-31T05:40:40;15.07;;;9.27;;
15167;SDS011;7684;52.150;11.656;2022-10-31T05:43:06;15.43;;;8.20;;
15167;SDS011;7684;52.150;11.656;2022-10-31T05:45:33;10.80;;;7.20;;
15167;SDS011;7684;52.150;11.656;2022-10-31T05:48:00;16.50;;;9.77;;
15167;SDS011;7684;52.150;11.656;2022-10-31T05:50:28;12.67;;;8.57;;
15167;SDS011;7684;52.150;11.656;2022-10-31T05:52:56;11.60;;;8.17;;
15167;SDS011;7684;52.150;11.656;2022-10-31T05:55:22;15.13;;;9.17;;
15167;SDS011;7684;52.150;11.656;2022-10-31T05:57:50;14.87;;;8.83;;
15167;SDS011;7684;52.150;11.656;2022-10-31T06:00:17;14.40;;;9.43;;
15167;SDS011;7684;52.150;11.656;2022-10-31T06:02:43;16.13;;;9.63;;
15167;SDS011;7684;52.150;11.656;2022-10-31T06:05:10;11.30;;;8.07;;
15167;SDS011;7684;52.150;11.656;2022-10-31T06:07:37;14.10;;;9.00;;
15167;SDS011;7684;52.150;11.656;2022-10-31T06:10:05;17.13;;;11.37;;
15167;SDS011;7684;52.150;11.656;2022-10-31T06:12:31;16.53;;;9.20;;
15167;SDS011;7684;52.150;11.656;2022-10-31T06:15:02;16.17;;;12.40;;
15167;SDS011;7684;52.150;11.656;2022-10-31T06:17:29;23.03;;;13.77;;
15167;SDS011;7684;52.150;11.656;2022-10-31T06:19:55;16.70;;;10.97;;
15167;SDS011;7684;52.150;11.656;2022-10-31T06:22:21;12.67;;;9.90;;
15167;SDS011;7684;52.150;11.656;2022-10-31T06:24:49;14.27;;;8.80;;
15167;SDS011;7684;52.150;11.656;2022-10-31T06:27:16;15.00;;;9.03;;
15167;SDS011;7684;52.150;11.656;2022-10-31T06:29:42;17.77;;;10.97;;
15167;SDS011;7684;52.150;11.656;2022-10-31T06:32:10;15.70;;;11.13;;
15167;SDS011;7684;52.150;11.656;2022-10-31T06:34:37;19.37;;;11.83;;
15167;SDS011;7684;52.150;11.656;2022-10-31T06:37:05;18.83;;;12.50;;
15167;SDS011;7684;52.150;11.656;2022-10-31T06:39:31;22.73;;;13.53;;
15167;SDS011;7684;52.150;11.656;2022-10-31T06:41:59;41.53;;;25.30;;
15167;SDS011;7684;52.150;11.656;2022-10-31T06:44:26;38.63;;;24.87;;
15167;SDS011;7684;52.150;11.656;2022-10-31T06:46:52;45.70;;;26.33;;
15167;SDS011;7684;52.150;11.656;2022-10-31T06:49:18;49.33;;;28.43;;
15167;SDS011;7684;52.150;11.656;2022-10-31T06:51:47;58.33;;;33.30;;
15167;SDS011;7684;52.150;11.656;2022-10-31T06:54:13;57.53;;;33.37;;
15167;SDS011;7684;52.150;11.656;2022-10-31T06:56:40;79.27;;;39.97;;
15167;SDS011;7684;52.150;11.656;2022-10-31T06:59:07;55.80;;;33.63;;
15167;SDS011;7684;52.150;11.656;2022-10-31T07:01:34;57.63;;;33.77;;
15167;SDS011;7684;52.150;11.656;2022-10-31T07:04:00;61.40;;;33.70;;
15167;SDS011;7684;52.150;11.656;2022-10-31T07:06:26;53.83;;;32.57;;
15167;SDS011;7684;52.150;11.656;2022-10-31T07:08:53;59.57;;;35.83;;
15167;SDS011;7684;52.150;11.656;2022-10-31T07:11:19;66.73;;;36.73;;
15167;SDS011;7684;52.150;11.656;2022-10-31T07:13:45;61.03;;;35.70;;
15167;SDS011;7684;52.150;11.656;2022-10-31T07:16:13;70.10;;;36.70;;
15167;SDS011;7684;52.150;11.656;2022-10-31T07:18:40;61.53;;;34.23;;
15167;SDS011;7684;52.150;11.656;2022-10-31T07:21:06;67.00;;;37.93;;
15167;SDS011;7684;52.150;11.656;2022-10-31T07:23:32;68.63;;;37.67;;
15167;SDS011;7684;52.150;11.656;2022-10-31T07:25:59;64.73;;;37.20;;
15167;SDS011;7684;52.150;11.656;2022-10-31T07:28:26;67.70;;;37.60;;
15167;SDS011;7684;52.150;11.656;2022-10-31T07:30:52;74.33;;;40.93;;
15167;SDS011;7684;52.150;11.656;2022-10-31T07:33:20;67.13;;;35.67;;
15167;SDS011;7684;52.150;11.656;2022-10-31T07:35:47;69.13;;;37.27;;
15167;SDS011;7684;52.150;11.656;2022-10-31T07:38:14;54.17;;;31.53;;
15167;SDS011;7684;52.150;11.656;2022-10-31T07:40:41;55.97;;;32.17;;
15167;SDS011;7684;52.150;11.656;2022-10-31T07:43:08;55.90;;;32.87;;
15167;SDS011;7684;52.150;11.656;2022-10-31T07:45:36;54.43;;;32.60;;
15167;SDS011;7684;52.150;11.656;2022-10-31T07:48:02;64.10;;;35.70;;
15167;SDS011;7684;52.150;11.656;2022-10-31T07:50:31;58.87;;;33.50;;
15167;SDS011;7684;52.150;11.656;2022-10-31T07:52:59;58.77;;;33.90;;
15167;SDS011;7684;52.150;11.656;2022-10-31T07:55:25;55.57;;;31.50;;
15167;SDS011;7684;52.150;11.656;2022-10-31T07:57:55;57.33;;;33.23;;
15167;SDS011;7684;52.150;11.656;2022-10-31T08:00:22;50.37;;;31.60;;
15167;SDS011;7684;52.150;11.656;2022-10-31T08:02:55;51.80;;;29.67;;
15167;SDS011;7684;52.150;11.656;2022-10-31T08:05:22;55.90;;;31.77;;
15167;SDS011;7684;52.150;11.656;2022-10-31T08:07:53;53.20;;;31.20;;
15167;SDS011;7684;52.150;11.656;2022-10-31T08:10:19;53.50;;;30.93;;
15167;SDS011;7684;52.150;11.656;2022-10-31T08:12:46;54.20;;;32.13;;
15167;SDS011;7684;52.150;11.656;2022-10-31T08:15:12;53.13;;;31.50;;
15167;SDS011;7684;52.150;11.656;2022-10-31T08:17:39;57.13;;;32.90;;
15167;SDS011;7684;52.150;11.656;2022-10-31T08:20:05;55.00;;;30.97;;
15167;SDS011;7684;52.150;11.656;2022-10-31T08:22:31;52.37;;;30.57;;
15167;SDS011;7684;52.150;11.656;2022-10-31T08:24:59;54.73;;;31.10;;
15167;SDS011;7684;52.150;11.656;2022-10-31T08:27:26;62.90;;;34.10;;
15167;SDS011;7684;52.150;11.656;2022-10-31T08:29:53;49.47;;;30.57;;
15167;SDS011;7684;52.150;11.656;2022-10-31T08:32:19;58.40;;;32.67;;
15167;SDS011;7684;52.150;11.656;2022-10-31T08:34:45;56.60;;;32.33;;
15167;SDS011;7684;52.150;11.656;2022-10-31T08:37:12;58.13;;;32.07;;
15167;SDS011;7684;52.150;11.656;2022-10-31T08:39:43;56.30;;;32.80;;
15167;SDS011;7684;52.150;11.656;2022-10-31T08:42:11;55.80;;;32.60;;
15167;SDS011;7684;52.150;11.656;2022-10-31T08:44:37;59.30;;;32.70;;
15167;SDS011;7684;52.150;11.656;2022-10-31T08:47:04;55.57;;;32.70;;
15167;SDS011;7684;52.150;11.656;2022-10-31T08:49:30;55.27;;;31.90;;
15167;SDS011;7684;52.150;11.656;2022-10-31T08:51:56;50.33;;;29.80;;
15167;SDS011;7684;52.150;11.656;2022-10-31T08:54:23;53.77;;;29.87;;
15167;SDS011;7684;52.150;11.656;2022-10-31T08:56:52;55.17;;;30.33;;
15167;SDS011;7684;52.150;11.656;2022-10-31T08:59:20;58.80;;;33.27;;
15167;SDS011;7684;52.150;11.656;2022-10-31T09:01:47;53.97;;;31.57;;
15167;SDS011;7684;52.150;11.656;2022-10-31T09:04:13;55.17;;;31.83;;
15167;SDS011;7684;52.150;11.656;2022-10-31T09:06:39;47.93;;;29.40;;
15167;SDS011;7684;52.150;11.656;2022-10-31T09:09:06;55.00;;;32.03;;
15167;SDS011;7684;52.150;11.656;2022-10-31T09:11:32;47.33;;;28.57;;
15167;SDS011;7684;52.150;11.656;2022-10-31T09:13:59;51.27;;;30.70;;
15167;SDS011;7684;52.150;11.656;2022-10-31T09:16:26;51.23;;;30.87;;
15167;SDS011;7684;52.150;11.656;2022-10-31T09:18:53;54.70;;;30.43;;
15167;SDS011;7684;52.150;11.656;2022-10-31T09:21:20;53.03;;;31.33;;
15167;SDS011;7684;52.150;11.656;2022-10-31T09:23:46;55.47;;;31.87;;
15167;SDS011;7684;52.150;11.656;2022-10-31T09:26:13;52.03;;;31.87;;
15167;SDS011;7684;52.150;11.656;2022-10-31T09:28:39;49.13;;;30.50;;
15167;SDS011;7684;52.150;11.656;2022-10-31T09:31:06;48.60;;;30.03;;
15167;SDS011;7684;52.150;11.656;2022-10-31T09:33:34;50.47;;;30.50;;
15167;SDS011;7684;52.150;11.656;2022-10-31T09:36:00;50.03;;;29.80;;
15167;SDS011;7684;52.150;11.656;2022-10-31T09:38:27;50.60;;;28.70;;
15167;SDS011;7684;52.150;11.656;2022-10-31T09:40:55;44.83;;;26.87;;
15167;SDS011;7684;52.150;11.656;2022-10-31T09:43:29;43.37;;;27.23;;
15167;SDS011;7684;52.150;11.656;2022-10-31T09:46:00;44.43;;;28.27;;
15167;SDS011;7684;52.150;11.656;2022-10-31T09:48:35;47.73;;;28.67;;
15167;SDS011;7684;52.150;11.656;2022-10-31T09:51:03;49.57;;;29.53;;
15167;SDS011;7684;52.150;11.656;2022-10-31T09:53:32;51.43;;;29.30;;
15167;SDS011;7684;52.150;11.656;2022-10-31T09:56:01;45.07;;;27.13;;
15167;SDS011;7684;52.150;11.656;2022-10-31T09:58:29;49.20;;;30.80;;
15167;SDS011;7684;52.150;11.656;2022-10-31T10:00:58;54.13;;;29.03;;
15167;SDS011;7684;52.150;11.656;2022-10-31T10:03:28;53.30;;;29.30;;
15167;SDS011;7684;52.150;11.656;2022-10-31T10:05:59;49.73;;;29.50;;
15167;SDS011;7684;52.150;11.656;2022-10-31T10:08:32;50.10;;;28.97;;
15167;SDS011;7684;52.150;11.656;2022-10-31T10:11:00;47.17;;;28.93;;
15167;SDS011;7684;52.150;11.656;2022-10-31T10:13:36;46.80;;;28.20;;
15167;SDS011;7684;52.150;11.656;2022-10-31T10:16:09;45.87;;;27.87;;
15167;SDS011;7684;52.150;11.656;2022-10-31T10:18:43;47.33;;;28.83;;
15167;SDS011;7684;52.150;11.656;2022-10-31T10:21:19;44.23;;;28.97;;
15167;SDS011;7684;52.150;11.656;2022-10-31T10:24:00;46.47;;;28.47;;
15167;SDS011;7684;52.150;11.656;2022-10-31T10:26:30;49.57;;;29.27;;
15167;SDS011;7684;52.150;11.656;2022-10-31T10:28:58;43.60;;;28.27;;
15167;SDS011;7684;52.150;11.656;2022-10-31T10:31:28;44.70;;;27.17;;
15167;SDS011;7684;52.150;11.656;2022-10-31T10:34:01;41.43;;;27.77;;
15167;SDS011;7684;52.150;11.656;2022-10-31T10:36:30;48.07;;;29.00;;
15167;SDS011;7684;52.150;11.656;2022-10-31T10:39:00;49.87;;;28.67;;
15167;SDS011;7684;52.150;11.656;2022-10-31T10:41:29;46.13;;;28.70;;
15167;SDS011;7684;52.150;11.656;2022-10-31T10:43:57;50.33;;;29.70;;
15167;SDS011;7684;52.150;11.656;2022-10-31T10:46:25;49.20;;;29.57;;
15167;SDS011;7684;52.150;11.656;2022-10-31T10:49:16;45.87;;;29.63;;
15167;SDS011;7684;52.150;11.656;2022-10-31T10:51:45;45.80;;;28.57;;
15167;SDS011;7684;52.150;11.656;2022-10-31T10:56:58;47.50;;;29.30;;
15167;SDS011;7684;52.150;11.656;2022-10-31T10:59:26;43.40;;;27.03;;
15167;SDS011;7684;52.150;11.656;2022-10-31T11:01:54;46.80;;;27.20;;
15167;SDS011;7684;52.150;11.656;2022-10-31T11:04:25;47.07;;;28.33;;
15167;SDS011;7684;52.150;11.656;2022-10-31T11:07:00;43.23;;;26.60;;
15167;SDS011;7684;52.150;11.656;2022-10-31T11:09:27;46.13;;;27.07;;
15167;SDS011;7684;52.150;11.656;2022-10-31T11:11:54;47.07;;;28.90;;
15167;SDS011;7684;52.150;11.656;2022-10-31T11:14:20;44.40;;;27.77;;
15167;SDS011;7684;52.150;11.656;2022-10-31T11:16:48;42.73;;;26.60;;
15167;SDS011;7684;52.150;11.656;2022-10-31T11:19:16;42.50;;;27.63;;
15167;SDS011;7684;52.150;11.656;2022-10-31T11:21:43;45.43;;;28.30;;
15167;SDS011;7684;52.150;11.656;2022-10-31T11:24:15;45.13;;;28.23;;
15167;SDS011;7684;52.150;11.656;2022-10-31T11:26:43;43.53;;;27.27;;
15167;SDS011;7684;52.150;11.656;2022-10-31T11:29:12;46.92;;;28.33;;
15167;SDS011;7684;52.150;11.656;2022-10-31T11:31:39;42.10;;;27.52;;
15167;SDS011;7684;52.150;11.656;2022-10-31T11:34:06;38.70;;;27.65;;
15167;SDS011;7684;52.150;11.656;2022-10-31T11:36:35;38.08;;;25.10;;
15167;SDS011;7684;52.150;11.656;2022-10-31T11:39:03;44.27;;;26.50;;
15167;SDS011;7684;52.150;11.656;2022-10-31T11:41:33;40.42;;;26.83;;
15167;SDS011;7684;52.150;11.656;2022-10-31T11:44:01;41.42;;;26.58;;
15167;SDS011;7684;52.150;11.656;2022-10-31T11:46:29;42.65;;;28.00;;
15167;SDS011;7684;52.150;11.656;2022-10-31T11:48:56;45.25;;;28.55;;
15167;SDS011;7684;52.150;11.656;2022-10-31T11:51:23;39.07;;;27.23;;
15167;SDS011;7684;52.150;11.656;2022-10-31T11:53:51;43.03;;;26.42;;
15167;SDS011;7684;52.150;11.656;2022-10-31T11:56:18;38.15;;;27.20;;
15167;SDS011;7684;52.150;11.656;2022-10-31T11:58:55;45.72;;;28.73;;
15167;SDS011;7684;52.150;11.656;2022-10-31T12:01:23;42.67;;;27.33;;
15167;SDS011;7684;52.150;11.656;2022-10-31T12:03:51;40.77;;;27.13;;
15167;SDS011;7684;52.150;11.656;2022-10-31T12:06:20;39.70;;;26.95;;
15167;SDS011;7684;52.150;11.656;2022-10-31T12:08:48;41.80;;;26.25;;
15167;SDS011;7684;52.150;11.656;2022-10-31T12:11:22;46.63;;;29.10;;
15167;SDS011;7684;52.150;11.656;2022-10-31T12:13:54;48.47;;;27.70;;
15167;SDS011;7684;52.150;11.656;2022-10-31T12:16:26;46.87;;;28.43;;
15167;SDS011;7684;52.150;11.656;2022-10-31T12:18:56;42.88;;;27.33;;
15167;SDS011;7684;52.150;11.656;2022-10-31T12:21:27;40.00;;;26.20;;
15167;SDS011;7684;52.150;11.656;2022-10-31T12:24:01;43.90;;;27.05;;
15167;SDS011;7684;52.150;11.656;2022-10-31T12:26:32;44.25;;;27.98;;
15167;SDS011;7684;52.150;11.656;2022-10-31T12:29:03;44.67;;;27.83;;
15167;SDS011;7684;52.150;11.656;2022-10-31T12:31:39;47.97;;;30.33;;
15167;SDS011;7684;52.150;11.656;2022-10-31T12:34:16;48.17;;;31.38;;
15167;SDS011;7684;52.150;11.656;2022-10-31T12:36:47;50.53;;;29.13;;
15167;SDS011;7684;52.150;11.656;2022-10-31T12:39:20;51.63;;;29.85;;
15167;SDS011;7684;52.150;11.656;2022-10-31T12:41:51;47.90;;;29.13;;
15167;SDS011;7684;52.150;11.656;2022-10-31T12:47:07;40.45;;;26.63;;
15167;SDS011;7684;52.150;11.656;2022-10-31T12:49:41;44.30;;;26.63;;
15167;SDS011;7684;52.150;11.656;2022-10-31T12:52:19;40.40;;;27.17;;
15167;SDS011;7684;52.150;11.656;2022-10-31T12:54:51;39.28;;;26.65;;
15167;SDS011;7684;52.150;11.656;2022-10-31T12:57:23;40.65;;;24.60;;
15167;SDS011;7684;52.150;11.656;2022-10-31T12:59:53;38.80;;;27.13;;
15167;SDS011;7684;52.150;11.656;2022-10-31T13:02:25;42.72;;;26.08;;
15167;SDS011;7684;52.150;11.656;2022-10-31T13:04:54;44.97;;;28.10;;
15167;SDS011;7684;52.150;11.656;2022-10-31T13:07:29;46.97;;;29.27;;
15167;SDS011;7684;52.150;11.656;2022-10-31T13:09:58;42.30;;;26.37;;
15167;SDS011;7684;52.150;11.656;2022-10-31T13:12:27;47.40;;;29.10;;
15167;SDS011;7684;52.150;11.656;2022-10-31T13:14:56;43.00;;;27.87;;
15167;SDS011;7684;52.150;11.656;2022-10-31T13:17:26;42.43;;;28.20;;
15167;SDS011;7684;52.150;11.656;2022-10-31T13:19:54;42.90;;;28.03;;
15167;SDS011;7684;52.150;11.656;2022-10-31T13:22:27;44.07;;;27.43;;
15167;SDS011;7684;52.150;11.656;2022-10-31T13:24:57;44.50;;;26.93;;
15167;SDS011;7684;52.150;11.656;2022-10-31T13:27:25;47.33;;;28.20;;
15167;SDS011;7684;52.150;11.656;2022-10-31T13:29:56;53.97;;;31.53;;
15167;SDS011;7684;52.150;11.656;2022-10-31T13:32:25;51.43;;;32.27;;
15167;SDS011;7684;52.150;11.656;2022-10-31T13:34:52;49.70;;;32.07;;
15167;SDS011;7684;52.150;11.656;2022-10-31T13:37:21;52.33;;;30.80;;
15167;SDS011;7684;52.150;11.656;2022-10-31T13:39:57;50.83;;;31.10;;
15167;SDS011;7684;52.150;11.656;2022-10-31T13:42:31;61.73;;;33.50;;
15167;SDS011;7684;52.150;11.656;2022-10-31T13:45:08;55.73;;;31.87;;
15167;SDS011;7684;52.150;11.656;2022-10-31T13:47:38;53.73;;;30.47;;
15167;SDS011;7684;52.150;11.656;2022-10-31T13:50:18;52.60;;;30.83;;
15167;SDS011;7684;52.150;11.656;2022-10-31T13:52:45;50.87;;;30.17;;
15167;SDS011;7684;52.150;11.656;2022-10-31T13:57:52;47.63;;;29.67;;
15167;SDS011;7684;52.150;11.656;2022-10-31T14:00:22;46.87;;;30.33;;
15167;SDS011;7684;52.150;11.656;2022-10-31T14:02:51;47.97;;;28.00;;
15167;SDS011;7684;52.150;11.656;2022-10-31T14:05:21;41.77;;;27.07;;
15167;SDS011;7684;52.150;11.656;2022-10-31T14:07:48;47.33;;;29.03;;
15167;SDS011;7684;52.150;11.656;2022-10-31T14:10:20;42.93;;;27.97;;
15167;SDS011;7684;52.150;11.656;2022-10-31T14:12:47;44.53;;;26.70;;
15167;SDS011;7684;52.150;11.656;2022-10-31T14:15:15;45.00;;;28.40;;
15167;SDS011;7684;52.150;11.656;2022-10-31T14:17:45;48.57;;;28.63;;
15167;SDS011;7684;52.150;11.656;2022-10-31T14:20:24;51.83;;;30.87;;
15167;SDS011;7684;52.150;11.656;2022-10-31T14:22:51;48.23;;;29.97;;
15167;SDS011;7684;52.150;11.656;2022-10-31T14:25:28;55.37;;;32.63;;
15167;SDS011;7684;52.150;11.656;2022-10-31T14:27:54;53.70;;;31.60;;
15167;SDS011;7684;52.150;11.656;2022-10-31T14:30:21;55.40;;;31.37;;
15167;SDS011;7684;52.150;11.656;2022-10-31T14:32:50;55.60;;;33.07;;
15167;SDS011;7684;52.150;11.656;2022-10-31T14:35:17;47.63;;;28.43;;
15167;SDS011;7684;52.150;11.656;2022-10-31T14:37:52;48.63;;;29.13;;
15167;SDS011;7684;52.150;11.656;2022-10-31T14:40:24;48.93;;;30.47;;
15167;SDS011;7684;52.150;11.656;2022-10-31T14:42:55;50.63;;;29.67;;
15167;SDS011;7684;52.150;11.656;2022-10-31T14:45:31;49.00;;;30.23;;
15167;SDS011;7684;52.150;11.656;2022-10-31T14:48:10;48.73;;;29.70;;
15167;SDS011;7684;52.150;11.656;2022-10-31T14:50:43;45.10;;;28.03;;
15167;SDS011;7684;52.150;11.656;2022-10-31T14:53:13;42.43;;;27.77;;
15167;SDS011;7684;52.150;11.656;2022-10-31T14:55:45;41.20;;;26.57;;
15167;SDS011;7684;52.150;11.656;2022-10-31T14:58:15;43.97;;;28.30;;
15167;SDS011;7684;52.150;11.656;2022-10-31T15:00:43;50.47;;;29.40;;
15167;SDS011;7684;52.150;11.656;2022-10-31T15:03:11;47.67;;;28.60;;
15167;SDS011;7684;52.150;11.656;2022-10-31T15:05:41;48.20;;;29.00;;
15167;SDS011;7684;52.150;11.656;2022-10-31T15:08:14;52.03;;;30.43;;
15167;SDS011;7684;52.150;11.656;2022-10-31T15:10:51;49.17;;;30.60;;
15167;SDS011;7684;52.150;11.656;2022-10-31T15:13:18;48.77;;;29.40;;
15167;SDS011;7684;52.150;11.656;2022-10-31T15:15:46;49.27;;;30.90;;
15167;SDS011;7684;52.150;11.656;2022-10-31T15:18:14;53.57;;;32.17;;
15167;SDS011;7684;52.150;11.656;2022-10-31T15:20:44;48.63;;;29.13;;
15167;SDS011;7684;52.150;11.656;2022-10-31T15:23:11;48.90;;;30.40;;
15167;SDS011;7684;52.150;11.656;2022-10-31T15:25:42;53.67;;;32.40;;
15167;SDS011;7684;52.150;11.656;2022-10-31T15:28:15;53.27;;;32.17;;
15167;SDS011;7684;52.150;11.656;2022-10-31T15:30:49;50.53;;;30.17;;
15167;SDS011;7684;52.150;11.656;2022-10-31T15:33:18;41.77;;;26.63;;
15167;SDS011;7684;52.150;11.656;2022-10-31T15:35:53;48.40;;;28.70;;
15167;SDS011;7684;52.150;11.656;2022-10-31T15:38:20;46.53;;;28.03;;
15167;SDS011;7684;52.150;11.656;2022-10-31T15:40:51;48.70;;;30.20;;
15167;SDS011;7684;52.150;11.656;2022-10-31T15:43:19;55.03;;;32.30;;
15167;SDS011;7684;52.150;11.656;2022-10-31T15:45:45;49.20;;;31.50;;
15167;SDS011;7684;52.150;11.656;2022-10-31T15:48:13;51.57;;;31.43;;
15167;SDS011;7684;52.150;11.656;2022-10-31T15:50:45;64.30;;;36.47;;
15167;SDS011;7684;52.150;11.656;2022-10-31T15:53:14;59.97;;;34.57;;
15167;SDS011;7684;52.150;11.656;2022-10-31T15:55:45;60.47;;;33.53;;
15167;SDS011;7684;52.150;11.656;2022-10-31T15:58:14;61.50;;;35.47;;
15167;SDS011;7684;52.150;11.656;2022-10-31T16:00:40;58.20;;;35.20;;
15167;SDS011;7684;52.150;11.656;2022-10-31T16:03:08;59.53;;;35.43;;
15167;SDS011;7684;52.150;11.656;2022-10-31T16:05:37;57.83;;;34.30;;
15167;SDS011;7684;52.150;11.656;2022-10-31T16:08:04;60.47;;;33.77;;
15167;SDS011;7684;52.150;11.656;2022-10-31T16:10:32;55.97;;;31.83;;
15167;SDS011;7684;52.150;11.656;2022-10-31T16:12:59;63.63;;;35.33;;
15167;SDS011;7684;52.150;11.656;2022-10-31T16:15:27;63.10;;;36.13;;
15167;SDS011;7684;52.150;11.656;2022-10-31T16:17:54;60.97;;;34.10;;
15167;SDS011;7684;52.150;11.656;2022-10-31T16:20:21;61.83;;;35.57;;
15167;SDS011;7684;52.150;11.656;2022-10-31T16:22:50;59.30;;;33.67;;
15167;SDS011;7684;52.150;11.656;2022-10-31T16:25:18;70.33;;;37.17;;
15167;SDS011;7684;52.150;11.656;2022-10-31T16:27:47;64.23;;;35.17;;
15167;SDS011;7684;52.150;11.656;2022-10-31T16:30:30;57.90;;;34.17;;
15167;SDS011;7684;52.150;11.656;2022-10-31T16:33:02;61.87;;;34.67;;
15167;SDS011;7684;52.150;11.656;2022-10-31T16:35:32;58.83;;;33.57;;
15167;SDS011;7684;52.150;11.656;2022-10-31T16:37:58;57.10;;;33.20;;
15167;SDS011;7684;52.150;11.656;2022-10-31T16:40:25;59.30;;;32.77;;
15167;SDS011;7684;52.150;11.656;2022-10-31T16:42:51;60.97;;;35.63;;
15167;SDS011;7684;52.150;11.656;2022-10-31T16:45:19;58.43;;;33.50;;
15167;SDS011;7684;52.150;11.656;2022-10-31T16:47:47;58.87;;;33.47;;
15167;SDS011;7684;52.150;11.656;2022-10-31T16:50:15;52.97;;;31.53;;
15167;SDS011;7684;52.150;11.656;2022-10-31T16:52:41;56.80;;;32.30;;
15167;SDS011;7684;52.150;11.656;2022-10-31T16:55:10;54.23;;;32.07;;
15167;SDS011;7684;52.150;11.656;2022-10-31T16:57:37;65.93;;;35.63;;
15167;SDS011;7684;52.150;11.656;2022-10-31T17:00:04;56.23;;;32.07;;
15167;SDS011;7684;52.150;11.656;2022-10-31T17:02:30;57.40;;;34.97;;
15167;SDS011;7684;52.150;11.656;2022-10-31T17:04:58;57.63;;;33.07;;
15167;SDS011;7684;52.150;11.656;2022-10-31T17:07:25;49.97;;;31.30;;
15167;SDS011;7684;52.150;11.656;2022-10-31T17:09:52;52.40;;;30.90;;
15167;SDS011;7684;52.150;11.656;2022-10-31T17:12:18;58.07;;;35.30;;
15167;SDS011;7684;52.150;11.656;2022-10-31T17:14:49;58.23;;;34.90;;
15167;SDS011;7684;52.150;11.656;2022-10-31T17:17:16;49.70;;;32.27;;
15167;SDS011;7684;52.150;11.656;2022-10-31T17:19:43;53.73;;;31.80;;
15167;SDS011;7684;52.150;11.656;2022-10-31T17:22:11;54.00;;;32.50;;
15167;SDS011;7684;52.150;11.656;2022-10-31T17:24:38;48.83;;;30.87;;
15167;SDS011;7684;52.150;11.656;2022-10-31T17:27:04;52.03;;;34.13;;
15167;SDS011;7684;52.150;11.656;2022-10-31T17:29:30;57.83;;;34.40;;
15167;SDS011;7684;52.150;11.656;2022-10-31T17:31:57;53.57;;;33.20;;
15167;SDS011;7684;52.150;11.656;2022-10-31T17:34:24;57.83;;;35.13;;
15167;SDS011;7684;52.150;11.656;2022-10-31T17:36:51;55.53;;;34.17;;
15167;SDS011;7684;52.150;11.656;2022-10-31T17:39:19;55.03;;;34.27;;
15167;SDS011;7684;52.150;11.656;2022-10-31T17:41:47;57.47;;;34.97;;
15167;SDS011;7684;52.150;11.656;2022-10-31T17:44:15;61.87;;;36.57;;
15167;SDS011;7684;52.150;11.656;2022-10-31T17:46:41;54.30;;;34.60;;
15167;SDS011;7684;52.150;11.656;2022-10-31T17:49:09;58.70;;;36.37;;
15167;SDS011;7684;52.150;11.656;2022-10-31T17:51:36;56.80;;;33.73;;
15167;SDS011;7684;52.150;11.656;2022-10-31T17:54:03;52.03;;;32.20;;
15167;SDS011;7684;52.150;11.656;2022-10-31T17:56:32;51.63;;;33.10;;
15167;SDS011;7684;52.150;11.656;2022-10-31T17:58:58;64.80;;;37.33;;
15167;SDS011;7684;52.150;11.656;2022-10-31T18:01:25;58.53;;;36.53;;
15167;SDS011;7684;52.150;11.656;2022-10-31T18:03:51;54.83;;;34.47;;
15167;SDS011;7684;52.150;11.656;2022-10-31T18:06:19;53.13;;;34.90;;
15167;SDS011;7684;52.150;11.656;2022-10-31T18:08:48;50.67;;;33.57;;
15167;SDS011;7684;52.150;11.656;2022-10-31T18:11:16;51.60;;;34.17;;
15167;SDS011;7684;52.150;11.656;2022-10-31T18:13:45;52.80;;;34.67;;
15167;SDS011;7684;52.150;11.656;2022-10-31T18:16:15;47.10;;;31.80;;
15167;SDS011;7684;52.150;11.656;2022-10-31T18:18:43;57.20;;;34.93;;
15167;SDS011;7684;52.150;11.656;2022-10-31T18:21:10;47.87;;;32.27;;
15167;SDS011;7684;52.150;11.656;2022-10-31T18:23:36;51.17;;;32.93;;
15167;SDS011;7684;52.150;11.656;2022-10-31T18:26:03;49.60;;;32.37;;
15167;SDS011;7684;52.150;11.656;2022-10-31T18:28:29;45.63;;;31.40;;
15167;SDS011;7684;52.150;11.656;2022-10-31T18:30:58;52.63;;;33.80;;
15167;SDS011;7684;52.150;11.656;2022-10-31T18:33:24;50.53;;;32.80;;
15167;SDS011;7684;52.150;11.656;2022-10-31T18:35:51;45.37;;;31.83;;
15167;SDS011;7684;52.150;11.656;2022-10-31T18:38:17;49.87;;;33.87;;
15167;SDS011;7684;52.150;11.656;2022-10-31T18:40:44;52.63;;;34.20;;
15167;SDS011;7684;52.150;11.656;2022-10-31T18:43:10;50.23;;;32.23;;
15167;SDS011;7684;52.150;11.656;2022-10-31T18:45:36;45.77;;;31.93;;
15167;SDS011;7684;52.150;11.656;2022-10-31T18:48:05;49.60;;;34.40;;
15167;SDS011;7684;52.150;11.656;2022-10-31T18:50:31;50.13;;;33.40;;
15167;SDS011;7684;52.150;11.656;2022-10-31T18:52:57;48.63;;;33.27;;
15167;SDS011;7684;52.150;11.656;2022-10-31T18:55:27;53.13;;;33.93;;
15167;SDS011;7684;52.150;11.656;2022-10-31T18:57:58;54.37;;;34.90;;
15167;SDS011;7684;52.150;11.656;2022-10-31T19:00:24;45.63;;;32.07;;
15167;SDS011;7684;52.150;11.656;2022-10-31T19:02:51;55.50;;;34.53;;
15167;SDS011;7684;52.150;11.656;2022-10-31T19:05:18;47.97;;;32.73;;
15167;SDS011;7684;52.150;11.656;2022-10-31T19:07:45;48.43;;;32.97;;
15167;SDS011;7684;52.150;11.656;2022-10-31T19:10:11;47.97;;;32.10;;
15167;SDS011;7684;52.150;11.656;2022-10-31T19:12:38;44.97;;;31.07;;
15167;SDS011;7684;52.150;11.656;2022-10-31T19:15:05;47.33;;;33.27;;
15167;SDS011;7684;52.150;11.656;2022-10-31T19:17:31;49.03;;;32.37;;
15167;SDS011;7684;52.150;11.656;2022-10-31T19:19:57;46.50;;;31.87;;
15167;SDS011;7684;52.150;11.656;2022-10-31T19:22:29;45.50;;;31.33;;
15167;SDS011;7684;52.150;11.656;2022-10-31T19:24:55;43.63;;;30.10;;
15167;SDS011;7684;52.150;11.656;2022-10-31T19:27:21;42.10;;;29.67;;
15167;SDS011;7684;52.150;11.656;2022-10-31T19:29:50;39.03;;;29.37;;
15167;SDS011;7684;52.150;11.656;2022-10-31T19:32:16;39.63;;;29.00;;
15167;SDS011;7684;52.150;11.656;2022-10-31T19:34:43;46.63;;;30.97;;
15167;SDS011;7684;52.150;11.656;2022-10-31T19:37:09;38.27;;;28.90;;
15167;SDS011;7684;52.150;11.656;2022-10-31T19:39:37;39.60;;;30.13;;
15167;SDS011;7684;52.150;11.656;2022-10-31T19:42:04;39.60;;;29.80;;
15167;SDS011;7684;52.150;11.656;2022-10-31T19:44:31;48.23;;;32.40;;
15167;SDS011;7684;52.150;11.656;2022-10-31T19:46:57;39.90;;;30.23;;
15167;SDS011;7684;52.150;11.656;2022-10-31T19:49:24;37.67;;;28.90;;
15167;SDS011;7684;52.150;11.656;2022-10-31T19:51:50;38.23;;;29.97;;
15167;SDS011;7684;52.150;11.656;2022-10-31T19:54:16;39.50;;;30.27;;